createdAt,value
2023-05-13T03:59:20.278Z,5.63
2023-05-13T04:00:20.440Z,5.63
2023-05-13T04:01:20.197Z,11.25
2023-05-13T04:02:20.208Z,11.25
2023-05-13T04:03:20.218Z,11.25
2023-05-13T04:04:20.196Z,11.25
2023-05-13T04:05:20.205Z,11.25
2023-05-13T04:06:20.155Z,11.25
2023-05-13T04:07:20.161Z,11.25
2023-05-13T04:08:20.161Z,11.25
2023-05-13T04:09:20.150Z,11.25
2023-05-13T04:10:20.368Z,11.25
2023-05-13T04:11:20.152Z,11.25
2023-05-13T04:12:20.119Z,11.25
2023-05-13T04:13:20.122Z,11.25
2023-05-13T04:14:20.113Z,16.88
2023-05-13T04:15:20.133Z,16.88
2023-05-13T04:16:20.155Z,16.88
2023-05-13T04:17:20.148Z,16.88
2023-05-13T04:18:20.091Z,16.88
2023-05-13T04:19:20.118Z,16.88
2023-05-13T04:20:20.324Z,16.88
2023-05-13T04:21:20.105Z,16.88
2023-05-13T04:23:20.076Z,16.88
2023-05-13T04:24:20.074Z,16.88
2023-05-13T04:25:20.075Z,16.88
2023-05-13T04:26:20.083Z,16.88
2023-05-13T04:27:20.086Z,16.88
2023-05-13T04:28:20.056Z,22.50
2023-05-13T04:29:20.063Z,22.50
2023-05-13T04:30:20.266Z,22.50
2023-05-13T04:31:20.103Z,22.50
2023-05-13T04:32:20.048Z,22.50
2023-05-13T04:33:20.052Z,22.50
2023-05-13T04:34:20.047Z,22.50
2023-05-13T04:35:20.078Z,22.50
2023-05-13T04:36:20.039Z,22.50
2023-05-13T04:37:20.020Z,22.50
2023-05-13T04:38:20.027Z,22.50
2023-05-13T04:39:20.016Z,22.50
2023-05-13T04:40:20.191Z,22.50
2023-05-13T04:41:20.007Z,22.50
2023-05-13T04:42:20.027Z,28.13
2023-05-13T04:43:20.013Z,28.13
2023-05-13T04:44:20.002Z,28.13
2023-05-13T04:45:20.004Z,28.13
2023-05-13T04:46:20.031Z,28.13
2023-05-13T04:47:20.071Z,28.13
2023-05-13T04:48:20.014Z,28.13
2023-05-13T04:49:19.989Z,28.13
2023-05-13T04:50:20.110Z,28.13
2023-05-13T04:51:19.971Z,28.13
2023-05-13T04:52:19.970Z,28.13
2023-05-13T04:53:19.980Z,28.13
2023-05-13T04:54:19.956Z,33.75
2023-05-13T04:55:19.969Z,33.75
2023-05-13T04:56:19.945Z,33.75
2023-05-13T04:57:19.954Z,39.38
2023-05-13T04:58:19.976Z,39.38
2023-05-13T04:59:19.958Z,45.00
2023-05-13T05:00:20.082Z,45.00
2023-05-13T05:01:19.987Z,45.00
2023-05-13T05:02:19.925Z,45.00
2023-05-13T05:03:19.952Z,39.38
2023-05-13T05:04:19.987Z,45.00
2023-05-13T05:05:19.953Z,50.63
2023-05-13T05:06:19.930Z,50.63
2023-05-13T05:07:19.914Z,56.25
2023-05-13T05:08:19.929Z,50.63
2023-05-13T05:09:19.919Z,50.63
2023-05-13T05:10:20.251Z,50.63
2023-05-13T05:11:19.915Z,45.00
2023-05-13T05:12:19.904Z,45.00
2023-05-13T05:13:19.913Z,45.00
2023-05-13T05:14:19.897Z,45.00
2023-05-13T05:15:19.885Z,50.63
2023-05-13T05:16:19.909Z,45.00
2023-05-13T05:17:19.966Z,45.00
2023-05-13T05:18:19.929Z,39.38
2023-05-13T05:19:19.999Z,39.38
2023-05-13T05:20:20.117Z,39.38
2023-05-13T05:21:19.876Z,39.38
2023-05-13T05:22:19.861Z,39.38
2023-05-13T05:23:19.873Z,39.38
2023-05-13T05:24:19.864Z,39.38
2023-05-13T05:25:19.891Z,39.38
2023-05-13T05:26:19.865Z,45.00
2023-05-13T05:27:19.859Z,45.00
2023-05-13T05:28:19.873Z,45.00
2023-05-13T05:29:19.856Z,45.00
2023-05-13T05:30:20.107Z,45.00
2023-05-13T05:31:19.925Z,45.00
2023-05-13T05:32:19.879Z,50.63
2023-05-13T05:33:19.842Z,50.63
2023-05-13T05:34:19.831Z,50.63
2023-05-13T05:35:19.851Z,56.25
2023-05-13T05:36:20.551Z,56.25
2023-05-13T05:37:19.843Z,61.88
2023-05-13T05:38:19.843Z,73.13
2023-05-13T05:39:19.816Z,78.75
2023-05-13T05:40:19.950Z,84.38
2023-05-13T05:41:19.821Z,90.00
2023-05-13T05:42:19.818Z,95.63
2023-05-13T05:43:19.826Z,95.63
2023-05-13T05:44:19.808Z,95.63
2023-05-13T05:45:19.803Z,101.25
2023-05-13T05:46:19.885Z,101.25
2023-05-13T05:47:19.802Z,101.25
2023-05-13T05:48:19.787Z,101.25
2023-05-13T05:49:19.782Z,101.25
2023-05-13T05:50:20.030Z,101.25
2023-05-13T05:51:19.856Z,106.88
2023-05-13T05:52:19.779Z,106.88
2023-05-13T05:53:19.788Z,106.88
2023-05-13T05:54:19.769Z,106.88
2023-05-13T05:55:19.778Z,106.88
2023-05-13T05:56:19.826Z,106.88
2023-05-13T05:57:19.758Z,106.88
2023-05-13T05:58:19.761Z,106.88
2023-05-13T05:59:19.756Z,106.88
2023-05-13T06:00:19.971Z,106.88
2023-05-13T06:01:19.765Z,106.88
2023-05-13T06:02:19.799Z,106.88
2023-05-13T06:03:19.858Z,112.50
2023-05-13T06:04:19.776Z,112.50
2023-05-13T06:05:19.745Z,112.50
2023-05-13T06:06:19.771Z,112.50
2023-05-13T06:07:19.782Z,112.50
2023-05-13T06:08:19.727Z,112.50
2023-05-13T06:09:19.729Z,118.13
2023-05-13T06:10:19.935Z,118.13
2023-05-13T06:11:19.758Z,118.13
2023-05-13T06:12:19.732Z,118.13
2023-05-13T06:13:19.723Z,118.13
2023-05-13T06:14:19.720Z,118.13
2023-05-13T06:15:19.732Z,118.13
2023-05-13T06:16:19.749Z,118.13
2023-05-13T06:17:19.710Z,118.13
2023-05-13T06:18:19.735Z,118.13
2023-05-13T06:19:19.706Z,123.75
2023-05-13T06:20:20.020Z,123.75
2023-05-13T06:21:19.701Z,123.75
2023-05-13T06:22:19.710Z,123.75
2023-05-13T06:23:19.734Z,123.75
2023-05-13T06:24:19.700Z,123.75
2023-05-13T06:25:19.739Z,123.75
2023-05-13T06:26:19.713Z,123.75
2023-05-13T06:27:19.694Z,123.75
2023-05-13T06:28:19.709Z,123.75
2023-05-13T06:29:19.712Z,129.38
2023-05-13T06:30:20.065Z,129.38
2023-05-13T06:31:19.728Z,129.38
2023-05-13T06:32:19.689Z,129.38
2023-05-13T06:33:19.758Z,129.38
2023-05-13T06:34:19.691Z,129.38
2023-05-13T06:35:19.719Z,129.38
2023-05-13T06:36:19.690Z,129.38
2023-05-13T06:37:19.672Z,129.38
2023-05-13T06:38:19.680Z,129.38
2023-05-13T06:39:19.786Z,129.38
2023-05-13T06:40:19.990Z,129.38
2023-05-13T06:41:19.681Z,135.00
2023-05-13T06:42:19.666Z,135.00
2023-05-13T06:43:19.696Z,135.00
2023-05-13T06:44:19.667Z,135.00
2023-05-13T06:45:19.663Z,135.00
2023-05-13T06:46:19.725Z,135.00
2023-05-13T06:47:21.795Z,135.00
2023-05-13T06:48:19.658Z,135.00
2023-05-13T06:49:19.716Z,135.00
2023-05-13T06:50:19.779Z,135.00
2023-05-13T06:51:19.657Z,135.00
2023-05-13T06:52:19.680Z,135.00
2023-05-13T06:53:19.665Z,135.00
2023-05-13T06:54:19.666Z,135.00
2023-05-13T06:55:19.726Z,135.00
2023-05-13T06:56:19.654Z,135.00
2023-05-13T06:57:20.763Z,135.00
2023-05-13T06:58:19.667Z,135.00
2023-05-13T06:59:19.650Z,135.00
2023-05-13T07:00:19.764Z,135.00
2023-05-13T07:01:19.723Z,135.00
2023-05-13T07:02:19.658Z,135.00
2023-05-13T07:03:19.663Z,135.00
2023-05-13T07:04:19.772Z,135.00
2023-05-13T07:05:19.666Z,135.00
2023-05-13T07:06:19.648Z,135.00
2023-05-13T07:07:19.653Z,135.00
2023-05-13T07:08:19.632Z,135.00
2023-05-13T07:09:19.635Z,135.00
2023-05-13T07:10:19.757Z,135.00
2023-05-13T07:11:19.680Z,135.00
2023-05-13T07:12:19.633Z,135.00
2023-05-13T07:13:19.647Z,135.00
2023-05-13T07:14:19.642Z,135.00
2023-05-13T07:15:19.785Z,135.00
2023-05-13T07:16:19.629Z,135.00
2023-05-13T07:17:19.656Z,135.00
2023-05-13T07:18:19.654Z,135.00
2023-05-13T07:19:19.787Z,135.00
2023-05-13T07:20:20.087Z,135.00
2023-05-13T07:21:19.637Z,135.00
2023-05-13T07:22:19.617Z,135.00
2023-05-13T07:23:19.618Z,135.00
2023-05-13T07:24:19.622Z,135.00
2023-05-13T07:25:19.640Z,135.00
2023-05-13T07:26:19.650Z,135.00
2023-05-13T07:27:19.637Z,135.00
2023-05-13T07:28:19.624Z,135.00
2023-05-13T07:29:19.630Z,135.00
2023-05-13T07:30:19.709Z,135.00
2023-05-13T07:31:19.703Z,135.00
2023-05-13T07:32:19.658Z,135.00
2023-05-13T07:33:19.621Z,135.00
2023-05-13T07:34:19.619Z,135.00
2023-05-13T07:35:19.757Z,135.00
2023-05-13T07:36:19.643Z,135.00
2023-05-13T07:37:19.612Z,135.00
2023-05-13T07:38:19.615Z,135.00
2023-05-13T07:39:19.633Z,135.00
2023-05-13T07:40:19.672Z,135.00
2023-05-13T07:41:19.624Z,135.00
2023-05-13T07:42:19.612Z,135.00
2023-05-13T07:43:19.653Z,135.00
2023-05-13T07:44:19.630Z,135.00
2023-05-13T07:45:19.717Z,135.00
2023-05-13T07:46:19.647Z,135.00
2023-05-13T07:47:19.781Z,129.38
2023-05-13T07:48:19.612Z,129.38
2023-05-13T07:49:19.620Z,129.38
2023-05-13T07:50:19.628Z,129.38
2023-05-13T07:51:19.608Z,129.38
2023-05-13T07:52:19.638Z,129.38
2023-05-13T07:53:20.018Z,129.38
2023-05-13T07:54:19.624Z,129.38
2023-05-13T07:55:19.785Z,129.38
2023-05-13T07:56:19.618Z,129.38
2023-05-13T07:57:19.632Z,129.38
2023-05-13T07:58:19.646Z,129.38
2023-05-13T07:59:19.646Z,129.38
2023-05-13T08:00:19.635Z,129.38
2023-05-13T08:01:19.609Z,129.38
2023-05-13T08:02:19.628Z,129.38
2023-05-13T08:03:19.697Z,129.38
2023-05-13T08:04:19.780Z,129.38
2023-05-13T08:05:19.760Z,129.38
2023-05-13T08:06:19.632Z,123.75
2023-05-13T08:07:19.610Z,123.75
2023-05-13T08:08:19.616Z,123.75
2023-05-13T08:09:19.624Z,123.75
2023-05-13T08:10:19.614Z,123.75
2023-05-13T08:11:19.615Z,123.75
2023-05-13T08:12:19.611Z,123.75
2023-05-13T08:13:19.623Z,123.75
2023-05-13T08:14:19.634Z,123.75
2023-05-13T08:15:19.787Z,123.75
2023-05-13T08:16:19.625Z,123.75
2023-05-13T08:17:19.626Z,123.75
2023-05-13T08:18:19.641Z,123.75
2023-05-13T08:19:19.783Z,123.75
2023-05-13T08:20:19.620Z,123.75
2023-05-13T08:21:19.622Z,123.75
2023-05-13T08:22:19.616Z,123.75
2023-05-13T08:23:19.624Z,123.75
2023-05-13T08:24:19.646Z,118.13
2023-05-13T08:25:19.870Z,118.13
2023-05-13T08:26:19.622Z,118.13
2023-05-13T08:27:19.616Z,118.13
2023-05-13T08:28:19.612Z,118.13
2023-05-13T08:29:19.658Z,118.13
2023-05-13T08:30:19.640Z,118.13
2023-05-13T08:31:19.701Z,118.13
2023-05-13T08:32:19.859Z,118.13
2023-05-13T08:33:19.625Z,118.13
2023-05-13T08:34:19.618Z,118.13
2023-05-13T08:35:19.781Z,118.13
2023-05-13T08:36:19.631Z,118.13
2023-05-13T08:37:19.634Z,118.13
2023-05-13T08:38:19.660Z,118.13
2023-05-13T08:39:19.616Z,118.13
2023-05-13T08:40:19.635Z,118.13
2023-05-13T08:41:21.850Z,118.13
2023-05-13T08:42:19.631Z,118.13
2023-05-13T08:43:19.616Z,118.13
2023-05-13T08:44:19.624Z,118.13
2023-05-13T08:45:19.757Z,118.13
2023-05-13T08:46:19.674Z,118.13
2023-05-13T08:47:19.682Z,118.13
2023-05-13T08:48:19.628Z,118.13
2023-05-13T08:49:19.644Z,118.13
2023-05-13T08:50:19.632Z,118.13
2023-05-13T08:51:19.621Z,118.13
2023-05-13T08:52:19.625Z,118.13
2023-05-13T08:53:19.633Z,118.13
2023-05-13T08:54:21.092Z,118.13
2023-05-13T08:55:19.822Z,118.13
2023-05-13T08:56:19.652Z,118.13
2023-05-13T08:57:19.624Z,118.13
2023-05-13T08:58:19.635Z,118.13
2023-05-13T08:59:19.629Z,118.13
2023-05-13T09:00:21.566Z,118.13
2023-05-13T09:01:19.667Z,118.13
2023-05-13T09:02:19.631Z,118.13
2023-05-13T09:03:19.675Z,118.13
2023-05-13T09:04:19.649Z,112.50
2023-05-13T09:05:19.824Z,112.50
2023-05-13T09:06:19.633Z,112.50
2023-05-13T09:07:19.637Z,112.50
2023-05-13T09:08:19.667Z,112.50
2023-05-13T09:09:19.638Z,112.50
2023-05-13T09:10:19.640Z,112.50
2023-05-13T09:11:19.652Z,112.50
2023-05-13T09:12:19.654Z,112.50
2023-05-13T09:13:19.665Z,118.13
2023-05-13T09:14:19.643Z,112.50
2023-05-13T09:15:19.829Z,112.50
2023-05-13T09:16:19.662Z,112.50
2023-05-13T09:17:19.649Z,112.50
2023-05-13T09:18:19.774Z,112.50
2023-05-13T09:19:19.853Z,112.50
2023-05-13T09:20:19.668Z,112.50
2023-05-13T09:21:19.664Z,112.50
2023-05-13T09:22:19.681Z,112.50
2023-05-13T09:23:19.671Z,112.50
2023-05-13T09:24:19.678Z,112.50
2023-05-13T09:25:20.025Z,112.50
2023-05-13T09:26:19.653Z,112.50
2023-05-13T09:27:19.655Z,112.50
2023-05-13T09:28:19.653Z,112.50
2023-05-13T09:29:19.662Z,112.50
2023-05-13T09:30:19.751Z,112.50
2023-05-13T09:31:19.733Z,112.50
2023-05-13T09:32:19.665Z,112.50
2023-05-13T09:33:19.664Z,112.50
2023-05-13T09:34:19.657Z,112.50
2023-05-13T09:35:19.858Z,112.50
2023-05-13T09:36:19.668Z,112.50
2023-05-13T09:37:19.659Z,112.50
2023-05-13T09:38:19.656Z,112.50
2023-05-13T09:39:19.666Z,112.50
2023-05-13T09:40:19.805Z,112.50
2023-05-13T09:41:19.718Z,118.13
2023-05-13T09:42:19.740Z,118.13
2023-05-13T09:43:19.669Z,118.13
2023-05-13T09:44:19.667Z,118.13
2023-05-13T09:45:19.923Z,118.13
2023-05-13T09:46:19.692Z,118.13
2023-05-13T09:47:19.679Z,118.13
2023-05-13T09:48:19.697Z,118.13
2023-05-13T09:49:19.700Z,118.13
2023-05-13T09:50:19.900Z,118.13
2023-05-13T09:51:19.731Z,118.13
2023-05-13T09:52:19.678Z,118.13
2023-05-13T09:53:19.680Z,118.13
2023-05-13T09:54:19.693Z,118.13
2023-05-13T09:55:19.741Z,118.13
2023-05-13T09:56:19.694Z,118.13
2023-05-13T09:57:19.681Z,118.13
2023-05-13T09:58:19.727Z,118.13
2023-05-13T09:59:19.769Z,118.13
2023-05-13T10:00:31.802Z,123.75
2023-05-13T10:01:19.727Z,123.75
2023-05-13T10:02:19.713Z,123.75
2023-05-13T10:13:49.945Z,129.38
2023-05-13T10:14:49.900Z,129.38
2023-05-13T10:15:49.911Z,129.38
2023-05-13T10:16:49.946Z,129.38
2023-05-13T10:17:49.987Z,129.38
2023-05-13T10:18:49.964Z,129.38
2023-05-13T10:19:49.964Z,129.38
2023-05-13T10:20:49.918Z,135.00
2023-05-13T10:21:49.905Z,135.00
2023-05-13T10:22:49.912Z,135.00
2023-05-13T10:23:49.919Z,135.00
2023-05-13T10:24:49.903Z,135.00
2023-05-13T10:25:49.938Z,140.63
2023-05-13T10:26:49.920Z,140.63
2023-05-13T10:27:49.942Z,140.63
2023-05-13T10:28:49.911Z,140.63
2023-05-13T10:29:49.924Z,146.25
2023-05-13T10:30:49.917Z,146.25
2023-05-13T10:31:49.949Z,146.25
2023-05-13T10:32:49.998Z,151.88
2023-05-13T10:33:49.950Z,151.88
2023-05-13T10:34:49.938Z,151.88
2023-05-13T10:35:49.933Z,151.88
2023-05-13T10:36:49.951Z,151.88
2023-05-13T10:37:49.921Z,157.50
2023-05-13T10:38:49.970Z,157.50
2023-05-13T10:39:49.966Z,157.50
2023-05-13T10:40:49.940Z,157.50
2023-05-13T10:41:50.005Z,157.50
2023-05-13T10:42:49.982Z,163.13
2023-05-13T10:43:49.937Z,163.13
2023-05-13T10:44:49.950Z,163.13
2023-05-13T10:45:50.023Z,163.13
2023-05-13T10:46:50.075Z,163.13
2023-05-13T10:47:50.204Z,163.13
2023-05-13T10:48:50.055Z,163.13
2023-05-13T10:49:49.986Z,168.75
2023-05-13T10:50:49.959Z,168.75
2023-05-13T10:51:49.960Z,168.75
2023-05-13T10:52:49.991Z,168.75
2023-05-13T10:53:49.990Z,168.75
2023-05-13T10:54:49.964Z,168.75
2023-05-13T10:55:49.982Z,174.38
2023-05-13T10:56:49.971Z,174.38
2023-05-13T10:57:49.973Z,174.38
2023-05-13T10:58:49.999Z,174.38
2023-05-13T10:59:49.989Z,180.00
2023-05-13T11:00:50.026Z,180.00
2023-05-13T11:01:50.075Z,180.00
2023-05-13T11:02:50.085Z,180.00
2023-05-13T11:03:50.060Z,185.63
2023-05-13T11:04:50.026Z,185.63
2023-05-13T11:05:50.015Z,185.63
2023-05-13T11:06:50.070Z,185.63
2023-05-13T11:07:50.012Z,191.25
2023-05-13T11:08:50.009Z,191.25
2023-05-13T11:09:50.027Z,191.25
2023-05-13T11:10:50.173Z,191.25
2023-05-13T11:11:50.028Z,196.88
2023-05-13T11:12:50.035Z,196.88
2023-05-13T11:13:50.045Z,202.50
2023-05-13T11:14:50.086Z,202.50
2023-05-13T11:15:50.089Z,202.50
2023-05-13T11:16:50.050Z,208.13
2023-05-13T11:17:50.095Z,208.13
2023-05-13T11:18:50.083Z,213.75
2023-05-13T11:19:50.089Z,213.75
2023-05-13T11:20:52.877Z,213.75
2023-05-13T11:21:50.063Z,213.75
2023-05-13T11:22:50.074Z,219.38
2023-05-13T11:23:50.070Z,225.00
2023-05-13T11:24:50.081Z,225.00
2023-05-13T11:25:50.082Z,225.00
2023-05-13T11:26:50.091Z,230.63
2023-05-13T11:27:50.100Z,236.25
2023-05-13T11:28:50.095Z,236.25
2023-05-13T11:29:50.101Z,241.88
2023-05-13T11:30:50.103Z,241.88
2023-05-13T11:31:50.276Z,247.50
2023-05-13T11:32:50.143Z,146.25
2023-05-13T11:33:50.128Z,140.63
2023-05-13T11:34:50.126Z,140.63
2023-05-13T11:35:50.126Z,140.63
2023-05-13T11:36:50.187Z,258.75
2023-05-13T11:37:50.154Z,151.88
2023-05-13T11:38:50.141Z,258.75
2023-05-13T11:39:50.144Z,270.00
2023-05-13T11:40:50.159Z,270.00
2023-05-13T11:41:50.194Z,264.38
2023-05-13T11:42:50.178Z,264.38
2023-05-13T11:43:50.172Z,140.63
2023-05-13T11:44:50.199Z,140.63
2023-05-13T11:45:50.246Z,140.63
2023-05-13T11:46:50.179Z,275.63
2023-05-13T11:47:50.244Z,281.25
2023-05-13T11:48:50.227Z,286.88
2023-05-13T11:49:50.229Z,292.50
2023-05-13T11:50:50.205Z,298.13
2023-05-13T11:51:50.202Z,298.13
2023-05-13T11:52:50.204Z,303.75
2023-05-13T11:53:50.212Z,309.38
2023-05-13T11:54:50.206Z,320.63
2023-05-13T11:55:50.216Z,326.25
2023-05-13T11:56:50.232Z,202.50
2023-05-13T11:57:50.233Z,174.38
2023-05-13T11:58:50.235Z,185.63
2023-05-13T11:59:50.230Z,298.13
2023-05-13T12:00:50.229Z,326.25
2023-05-13T12:01:50.275Z,326.25
2023-05-13T12:02:50.410Z,320.63
2023-05-13T12:03:50.267Z,331.88
2023-05-13T12:04:50.359Z,354.38
2023-05-13T12:05:50.271Z,371.25
2023-05-13T12:06:50.259Z,371.25
2023-05-13T12:07:50.284Z,371.25
2023-05-13T12:08:50.279Z,376.88
2023-05-13T12:09:50.292Z,270.00
2023-05-13T12:10:50.296Z,219.38
2023-05-13T12:11:50.296Z,174.38
2023-05-13T12:12:50.332Z,168.75
2023-05-13T12:13:50.296Z,163.13
2023-05-13T12:14:50.354Z,157.50
2023-05-13T12:15:50.380Z,168.75
2023-05-13T12:16:50.315Z,382.50
2023-05-13T12:17:50.428Z,382.50
2023-05-13T12:18:50.376Z,399.38
2023-05-13T12:19:50.350Z,405.00
2023-05-13T12:20:50.357Z,410.63
2023-05-13T12:21:50.354Z,421.88
2023-05-13T12:22:50.365Z,427.50
2023-05-13T12:23:50.348Z,433.13
2023-05-13T12:24:50.353Z,438.75
2023-05-13T12:25:50.359Z,438.75
2023-05-13T12:26:50.361Z,444.38
2023-05-13T12:27:50.400Z,450.00
2023-05-13T12:28:50.385Z,219.38
2023-05-13T12:29:50.403Z,196.88
2023-05-13T12:30:50.438Z,180.00
2023-05-13T12:31:50.518Z,168.75
2023-05-13T12:32:50.425Z,157.50
2023-05-13T12:33:50.412Z,146.25
2023-05-13T12:34:50.407Z,140.63
2023-05-13T12:35:50.450Z,478.13
2023-05-13T12:36:50.439Z,489.38
2023-05-13T12:37:50.445Z,506.25
2023-05-13T12:38:50.435Z,523.13
2023-05-13T12:39:50.461Z,534.38
2023-05-13T12:40:50.488Z,556.88
2023-05-13T12:41:50.471Z,551.25
2023-05-13T12:42:50.459Z,196.88
2023-05-13T12:43:50.493Z,180.00
2023-05-13T12:44:50.483Z,174.38
2023-05-13T12:45:50.485Z,157.50
2023-05-13T12:46:50.503Z,151.88
2023-05-13T12:47:50.549Z,146.25
2023-05-13T12:48:50.499Z,545.63
2023-05-13T12:49:50.510Z,601.88
2023-05-13T12:50:50.529Z,607.50
2023-05-13T12:51:50.556Z,630.00
2023-05-13T12:52:50.536Z,646.88
2023-05-13T12:53:50.562Z,658.13
2023-05-13T12:54:50.510Z,219.38
2023-05-13T12:55:50.508Z,185.63
2023-05-13T12:56:50.519Z,185.63
2023-05-13T12:57:50.538Z,185.63
2023-05-13T12:58:50.568Z,686.25
2023-05-13T12:59:50.533Z,652.50
2023-05-13T13:00:50.591Z,658.13
2023-05-13T13:01:50.577Z,174.38
2023-05-13T13:02:50.671Z,168.75
2023-05-13T13:03:50.706Z,157.50
2023-05-13T13:04:50.588Z,140.63
2023-05-13T13:05:50.584Z,140.63
2023-05-13T13:06:50.586Z,157.50
2023-05-13T13:07:50.588Z,174.38
2023-05-13T13:08:50.597Z,180.00
2023-05-13T13:09:50.610Z,225.00
2023-05-13T13:10:50.613Z,523.13
2023-05-13T13:11:50.605Z,832.50
2023-05-13T13:12:50.596Z,680.63
2023-05-13T13:13:50.614Z,264.38
2023-05-13T13:14:50.599Z,877.50
2023-05-13T13:15:50.643Z,888.75
2023-05-13T13:16:50.697Z,911.25
2023-05-13T13:17:50.684Z,900.00
2023-05-13T13:18:52.386Z,894.38
2023-05-13T13:19:50.661Z,247.50
2023-05-13T13:20:50.638Z,230.63
2023-05-13T13:21:50.628Z,230.63
2023-05-13T13:22:50.646Z,213.75
2023-05-13T13:23:50.645Z,236.25
2023-05-13T13:24:50.663Z,168.75
2023-05-13T13:25:50.688Z,151.88
2023-05-13T13:26:50.688Z,140.63
2023-05-13T13:27:50.662Z,135.00
2023-05-13T13:28:50.696Z,112.50
2023-05-13T13:29:50.673Z,101.25
2023-05-13T13:30:50.685Z,90.00
2023-05-13T13:31:50.755Z,84.38
2023-05-13T13:32:50.787Z,78.75
2023-05-13T13:33:50.706Z,78.75
2023-05-13T13:34:50.703Z,84.38
2023-05-13T13:35:50.733Z,90.00
2023-05-13T13:36:50.726Z,101.25
2023-05-13T13:37:50.732Z,118.13
2023-05-13T13:38:50.727Z,151.88
2023-05-13T13:39:50.735Z,208.13
2023-05-13T13:40:50.715Z,810.00
2023-05-13T13:41:50.732Z,635.63
2023-05-13T13:42:50.719Z,303.75
2023-05-13T13:43:50.773Z,810.00
2023-05-13T13:44:50.790Z,877.50
2023-05-13T13:45:50.760Z,894.38
2023-05-13T13:46:50.845Z,708.75
2023-05-13T13:49:24.144Z,900.00
2023-05-13T13:50:23.396Z,877.50
2023-05-13T13:51:23.280Z,866.25
2023-05-13T13:52:23.287Z,849.38
2023-05-13T13:53:23.295Z,838.13
2023-05-13T13:54:23.321Z,832.50
2023-05-13T13:55:23.297Z,832.50
2023-05-13T13:56:23.299Z,815.63
2023-05-13T13:57:23.339Z,798.75
2023-05-13T13:58:23.317Z,309.38
2023-05-13T13:59:23.324Z,804.38
2023-05-13T14:00:23.552Z,787.50
2023-05-13T14:01:23.374Z,680.63
2023-05-13T14:02:23.517Z,247.50
2023-05-13T14:03:23.534Z,213.75
2023-05-13T14:04:23.390Z,196.88
2023-05-13T14:05:23.378Z,168.75
2023-05-13T14:06:23.357Z,135.00
2023-05-13T14:07:23.368Z,112.50
2023-05-13T14:08:23.424Z,90.00
2023-05-13T14:09:23.392Z,78.75
2023-05-13T14:10:23.538Z,73.13
2023-05-13T14:11:23.394Z,73.13
2023-05-13T14:12:23.398Z,67.50
2023-05-13T14:13:23.438Z,67.50
2023-05-13T14:14:23.411Z,67.50
2023-05-13T14:15:23.416Z,73.13
2023-05-13T14:16:23.515Z,78.75
2023-05-13T14:17:23.495Z,84.38
2023-05-13T14:18:23.511Z,95.63
2023-05-13T14:19:23.459Z,112.50
2023-05-13T14:20:23.653Z,1074.38
2023-05-13T14:21:23.416Z,1293.75
2023-05-13T14:22:23.458Z,1366.88
2023-05-13T14:23:23.432Z,1625.63
2023-05-13T14:24:23.438Z,1839.38
2023-05-13T14:25:23.459Z,1884.38
2023-05-13T14:26:23.450Z,2008.13
2023-05-13T14:27:23.474Z,2098.13
2023-05-13T14:28:25.151Z,2081.25
2023-05-13T14:29:23.475Z,2070.00
2023-05-13T14:30:23.757Z,2126.25
2023-05-13T14:31:23.486Z,2176.88
2023-05-13T14:32:23.509Z,2148.75
2023-05-13T14:33:23.470Z,2070.00
2023-05-13T14:34:23.510Z,1985.63
2023-05-13T14:35:23.486Z,1968.75
2023-05-13T14:36:23.492Z,1929.38
2023-05-13T14:37:23.502Z,1805.63
2023-05-13T14:38:23.504Z,1411.88
2023-05-13T14:39:23.508Z,759.38
2023-05-13T14:40:23.706Z,185.63
2023-05-13T14:41:23.520Z,146.25
2023-05-13T14:42:23.568Z,129.38
2023-05-13T14:43:23.528Z,118.13
2023-05-13T14:44:23.531Z,112.50
2023-05-13T14:45:23.553Z,112.50
2023-05-13T14:46:23.598Z,118.13
2023-05-13T14:47:23.558Z,123.75
2023-05-13T14:48:23.558Z,129.38
2023-05-13T14:49:23.565Z,146.25
2023-05-13T14:50:23.759Z,174.38
2023-05-13T14:51:23.576Z,225.00
2023-05-13T14:52:23.575Z,506.25
2023-05-13T14:53:23.579Z,1563.75
2023-05-13T14:54:23.585Z,815.63
2023-05-13T14:55:23.579Z,1001.25
2023-05-13T14:56:23.607Z,1440.00
2023-05-13T14:57:23.611Z,1507.50
2023-05-13T14:58:23.606Z,1569.38
2023-05-13T14:59:23.614Z,1586.25
2023-05-13T15:00:23.758Z,1575.00
2023-05-13T15:01:23.670Z,1558.13
2023-05-13T15:02:23.677Z,1586.25
2023-05-13T15:03:23.642Z,1479.38
2023-05-13T15:04:23.633Z,1541.25
2023-05-13T15:05:23.643Z,1552.50
2023-05-13T15:06:23.634Z,1586.25
2023-05-13T15:07:23.632Z,1569.38
2023-05-13T15:08:23.633Z,1603.13
2023-05-13T15:09:23.657Z,1569.38
2023-05-13T15:10:23.944Z,1518.75
2023-05-13T15:11:23.645Z,1485.00
2023-05-13T15:12:23.683Z,1468.13
2023-05-13T15:13:23.668Z,1130.63
2023-05-13T15:14:23.658Z,1389.38
2023-05-13T15:15:23.664Z,1417.50
2023-05-13T15:16:23.766Z,1378.13
2023-05-13T15:17:23.780Z,1355.63
2023-05-13T15:18:23.714Z,208.13
2023-05-13T15:19:23.697Z,225.00
2023-05-13T15:20:23.980Z,1316.25
2023-05-13T15:21:23.717Z,1288.13
2023-05-13T15:22:23.732Z,1226.25
2023-05-13T15:23:23.732Z,1108.13
2023-05-13T15:24:23.736Z,196.88
2023-05-13T15:25:23.758Z,191.25
2023-05-13T15:26:23.732Z,185.63
2023-05-13T15:27:23.753Z,180.00
2023-05-13T15:28:23.753Z,180.00
2023-05-13T15:29:23.781Z,191.25
2023-05-13T15:30:23.909Z,208.13
2023-05-13T15:31:23.845Z,275.63
2023-05-13T15:32:23.761Z,258.75
2023-05-13T15:33:23.775Z,247.50
2023-05-13T15:34:23.787Z,230.63
2023-05-13T15:35:23.782Z,202.50
2023-05-13T15:36:23.770Z,180.00
2023-05-13T15:37:23.786Z,146.25
2023-05-13T15:38:23.787Z,151.88
2023-05-13T15:39:23.802Z,101.25
2023-05-13T15:40:23.880Z,73.13
2023-05-13T15:41:23.812Z,61.88
2023-05-13T15:42:23.794Z,50.63
2023-05-13T15:43:23.809Z,39.38
2023-05-13T15:44:23.824Z,39.38
2023-05-13T15:45:23.829Z,33.75
2023-05-13T15:46:23.927Z,28.13
2023-05-13T15:47:23.988Z,28.13
2023-05-13T15:48:23.904Z,28.13
2023-05-13T15:49:23.884Z,28.13
2023-05-13T15:50:24.088Z,28.13
2023-05-13T15:51:23.824Z,28.13
2023-05-13T15:52:23.853Z,28.13
2023-05-13T15:53:23.822Z,33.75
2023-05-13T15:54:23.850Z,33.75
2023-05-13T15:55:23.832Z,33.75
2023-05-13T15:56:23.856Z,39.38
2023-05-13T15:57:23.846Z,39.38
2023-05-13T15:58:23.853Z,45.00
2023-05-13T15:59:23.856Z,45.00
2023-05-13T16:00:24.159Z,50.63
2023-05-13T16:01:23.882Z,56.25
2023-05-13T16:12:58.713Z,112.50
2023-05-13T16:13:58.706Z,112.50
2023-05-13T16:14:58.685Z,112.50
2023-05-13T16:15:58.724Z,112.50
2023-05-13T16:16:58.674Z,112.50
2023-05-13T16:17:58.705Z,112.50
2023-05-13T16:18:58.756Z,112.50
2023-05-13T16:19:58.852Z,112.50
2023-05-13T16:20:58.668Z,112.50
2023-05-13T16:21:58.668Z,112.50
2023-05-13T16:22:58.687Z,112.50
2023-05-13T16:23:58.718Z,112.50
2023-05-13T16:24:58.700Z,112.50
2023-05-13T16:25:58.676Z,112.50
2023-05-13T16:26:58.682Z,112.50
2023-05-13T16:27:58.854Z,112.50
2023-05-13T16:28:58.742Z,112.50
2023-05-13T16:29:58.717Z,106.88
2023-05-13T16:30:58.890Z,106.88
2023-05-13T16:31:58.722Z,106.88
2023-05-13T16:32:58.746Z,106.88
2023-05-13T16:33:58.683Z,101.25
2023-05-13T16:34:58.706Z,101.25
2023-05-13T16:35:58.701Z,101.25
2023-05-13T16:36:59.300Z,101.25
2023-05-13T16:37:58.687Z,101.25
2023-05-13T16:38:58.681Z,101.25
2023-05-13T16:39:58.750Z,101.25
2023-05-13T16:40:58.743Z,101.25
2023-05-13T16:41:58.922Z,106.88
2023-05-13T16:43:01.113Z,112.50
2023-05-13T16:43:58.684Z,118.13
2023-05-13T16:44:58.726Z,118.13
2023-05-13T16:45:58.719Z,118.13
2023-05-13T16:46:58.697Z,112.50
2023-05-13T16:47:58.747Z,112.50
2023-05-13T16:49:00.183Z,112.50
2023-05-13T16:49:58.685Z,101.25
2023-05-13T16:50:58.700Z,101.25
2023-05-13T16:51:58.700Z,101.25
2023-05-13T16:52:58.685Z,95.63
2023-05-13T16:53:58.711Z,95.63